createdAt,value
2023-03-17T00:00:14.660Z,5.75
2023-03-17T00:01:14.660Z,5.78
2023-03-17T00:02:14.691Z,5.88
2023-03-17T00:03:14.662Z,5.89
2023-03-17T00:04:14.621Z,5.92
2023-03-17T00:05:14.616Z,5.93
2023-03-17T00:06:14.625Z,5.86
2023-03-17T00:07:14.625Z,5.92
2023-03-17T00:08:14.588Z,5.89
2023-03-17T00:09:14.576Z,5.88
2023-03-17T00:10:14.551Z,5.95
2023-03-17T00:11:14.546Z,5.92
2023-03-17T00:12:14.556Z,5.95
2023-03-17T00:13:14.522Z,5.98
2023-03-17T00:14:14.555Z,5.96
2023-03-17T00:15:14.507Z,5.96
2023-03-17T00:16:14.533Z,5.89
2023-03-17T00:17:14.522Z,5.88
2023-03-17T00:18:14.480Z,5.89
2023-03-17T00:19:14.468Z,5.88
2023-03-17T00:20:14.456Z,5.85
2023-03-17T00:21:14.445Z,5.74
2023-03-17T00:22:14.454Z,5.70
2023-03-17T00:23:14.423Z,5.68
2023-03-17T00:24:15.147Z,5.68
2023-03-17T00:25:14.425Z,5.73
2023-03-17T00:26:14.404Z,5.73
2023-03-17T00:27:14.463Z,5.68
2023-03-17T00:28:14.383Z,5.70
2023-03-17T00:29:14.383Z,5.68
2023-03-17T00:30:14.369Z,5.67
2023-03-17T00:31:14.455Z,5.64
2023-03-17T00:32:14.379Z,5.56
2023-03-17T00:33:14.343Z,5.55
2023-03-17T00:34:14.324Z,5.57
2023-03-17T00:35:14.305Z,5.52
2023-03-17T00:36:14.295Z,5.55
2023-03-17T00:37:14.300Z,5.53
2023-03-17T00:38:14.298Z,5.55
2023-03-17T00:39:48.658Z,5.50
2023-03-17T00:40:49.653Z,5.45
2023-03-17T00:41:51.378Z,5.35
2023-03-17T00:42:49.648Z,5.28
2023-03-17T00:43:49.624Z,5.25
2023-03-17T00:44:49.615Z,5.22
2023-03-17T00:45:49.614Z,5.14
2023-03-17T00:46:49.703Z,5.09
2023-03-17T00:47:49.601Z,5.02
2023-03-17T00:48:49.565Z,5.02
2023-03-17T00:49:49.558Z,4.98
2023-03-17T00:50:49.546Z,4.95
2023-03-17T00:51:49.544Z,4.94
2023-03-17T00:52:49.541Z,4.91
2023-03-17T00:53:49.532Z,4.92
2023-03-17T00:54:49.511Z,4.91
2023-03-17T00:55:49.512Z,4.91
2023-03-17T00:56:49.504Z,4.88
2023-03-17T00:57:49.505Z,4.99
2023-03-17T00:58:49.477Z,4.98
2023-03-17T00:59:49.460Z,5.07
2023-03-17T01:00:49.486Z,5.16
2023-03-17T01:01:49.513Z,5.19
2023-03-17T01:02:49.455Z,5.23
2023-03-17T01:03:49.426Z,5.27
2023-03-17T01:04:59.526Z,5.31
2023-03-17T01:05:49.411Z,5.32
2023-03-17T01:06:49.396Z,5.35
2023-03-17T01:07:49.438Z,5.38
2023-03-17T01:08:49.363Z,5.41
2023-03-17T01:09:49.361Z,5.45
2023-03-17T01:10:49.342Z,5.43
2023-03-17T01:11:49.349Z,5.48
2023-03-17T01:12:49.350Z,5.46
2023-03-17T01:13:49.320Z,5.53
2023-03-17T01:14:49.305Z,5.49
2023-03-17T01:15:49.302Z,5.43
2023-03-17T01:16:49.302Z,5.40
2023-03-17T01:17:49.291Z,5.35
2023-03-17T01:18:49.331Z,5.40
2023-03-17T01:19:49.262Z,5.35
2023-03-17T01:20:49.247Z,5.32
2023-03-17T01:21:49.246Z,5.30
2023-03-17T01:22:49.249Z,5.23
2023-03-17T01:23:49.235Z,5.30
2023-03-17T01:24:49.214Z,5.38
2023-03-17T01:25:49.216Z,5.41
2023-03-17T01:26:49.192Z,5.37
2023-03-17T01:27:49.197Z,5.32
2023-03-17T01:28:49.170Z,5.31
2023-03-17T01:29:49.165Z,5.30
2023-03-17T01:30:49.174Z,5.28
2023-03-17T01:31:49.223Z,5.23
2023-03-17T01:32:49.158Z,5.20
2023-03-17T01:33:49.121Z,5.19
2023-03-17T01:34:49.105Z,5.14
2023-03-17T01:35:49.124Z,5.10
2023-03-17T01:36:49.088Z,5.02
2023-03-17T01:37:49.103Z,5.01
2023-03-17T01:38:49.069Z,5.04
2023-03-17T01:39:49.065Z,5.13
2023-03-17T01:40:49.049Z,5.14
2023-03-17T01:41:49.092Z,5.14
2023-03-17T01:42:49.055Z,5.19
2023-03-17T01:43:49.023Z,5.19
2023-03-17T01:44:49.007Z,5.17
2023-03-17T01:45:49.036Z,5.23
2023-03-17T01:46:48.985Z,5.27
2023-03-17T01:47:49.002Z,5.22
2023-03-17T01:48:48.991Z,5.31
2023-03-17T01:49:48.959Z,5.31
2023-03-17T01:50:48.957Z,5.28
2023-03-17T01:51:48.941Z,5.32
2023-03-17T01:52:48.921Z,5.34
2023-03-17T01:53:48.935Z,5.31
2023-03-17T01:54:48.914Z,5.35
2023-03-17T01:55:48.911Z,5.45
2023-03-17T01:56:48.893Z,5.49
2023-03-17T01:57:48.916Z,5.46
2023-03-17T01:58:48.876Z,5.46
2023-03-17T01:59:48.869Z,5.41
2023-03-17T02:00:48.874Z,5.38
2023-03-17T02:01:48.838Z,5.34
2023-03-17T02:02:48.842Z,5.30
2023-03-17T02:03:48.850Z,5.28
2023-03-17T02:04:48.806Z,5.25
2023-03-17T02:05:48.799Z,5.19
2023-03-17T02:06:57.434Z,5.09
2023-03-17T02:07:48.813Z,5.01
2023-03-17T02:08:48.764Z,4.94
2023-03-17T02:09:48.766Z,4.86
2023-03-17T02:10:48.748Z,4.84
2023-03-17T02:11:48.742Z,4.86
2023-03-17T02:12:48.743Z,4.89
2023-03-17T02:13:48.727Z,4.91
2023-03-17T02:14:48.724Z,4.86
2023-03-17T02:15:48.702Z,4.79
2023-03-17T02:16:48.779Z,4.76
2023-03-17T02:17:48.702Z,4.72
2023-03-17T02:18:48.668Z,4.75
2023-03-17T02:19:48.662Z,4.70
2023-03-17T02:20:48.649Z,4.86
2023-03-17T02:21:48.642Z,4.88
2023-03-17T02:22:48.670Z,4.89
2023-03-17T02:23:48.621Z,4.95
2023-03-17T02:24:48.606Z,4.92
2023-03-17T02:25:48.599Z,4.95
2023-03-17T02:26:48.587Z,5.01
2023-03-17T02:27:48.581Z,5.14
2023-03-17T02:28:48.621Z,5.23
2023-03-17T02:29:48.564Z,5.34
2023-03-17T02:30:48.580Z,5.34
2023-03-17T02:31:48.543Z,5.32
2023-03-17T02:32:48.588Z,5.34
2023-03-17T02:33:48.539Z,5.43
2023-03-17T02:34:48.520Z,5.38
2023-03-17T02:35:48.528Z,5.40
2023-03-17T02:36:48.500Z,5.38
2023-03-17T02:37:48.482Z,5.38
2023-03-17T02:38:48.485Z,5.35
2023-03-17T02:39:48.466Z,5.34
2023-03-17T02:40:48.459Z,5.32
2023-03-17T02:41:48.447Z,5.30
2023-03-17T02:42:48.433Z,5.23
2023-03-17T02:43:48.446Z,5.16
2023-03-17T02:44:48.423Z,5.13
2023-03-17T02:45:48.423Z,5.13
2023-03-17T02:46:48.398Z,5.13
2023-03-17T02:47:48.391Z,5.07
2023-03-17T02:48:48.409Z,5.07
2023-03-17T02:49:48.371Z,5.07
2023-03-17T02:50:48.357Z,5.07
2023-03-17T02:51:48.351Z,5.05
2023-03-17T02:52:48.341Z,5.07
2023-03-17T02:53:48.341Z,5.02
2023-03-17T02:54:48.320Z,4.96
2023-03-17T02:55:48.309Z,4.94
2023-03-17T02:56:48.294Z,4.88
2023-03-17T02:57:48.313Z,4.83
2023-03-17T02:58:48.300Z,4.76
2023-03-17T02:59:48.274Z,4.67
2023-03-17T03:00:48.256Z,4.65
2023-03-17T03:01:48.275Z,4.57
2023-03-17T03:02:48.365Z,4.55
2023-03-17T03:03:48.242Z,4.51
2023-03-17T03:04:48.211Z,4.44
2023-03-17T03:05:48.216Z,4.40
2023-03-17T03:06:48.198Z,4.28
2023-03-17T03:07:48.190Z,4.16
2023-03-17T03:08:48.187Z,3.98
2023-03-17T03:09:48.171Z,3.85
2023-03-17T03:10:48.156Z,3.70
2023-03-17T03:11:48.151Z,3.67
2023-03-17T03:12:48.135Z,3.57
2023-03-17T03:13:48.141Z,3.52
2023-03-17T03:14:48.121Z,3.43
2023-03-17T03:15:48.207Z,3.34
2023-03-17T03:16:48.095Z,3.25
2023-03-17T03:17:48.088Z,3.33
2023-03-17T03:18:48.115Z,3.28
2023-03-17T03:19:48.086Z,3.28
2023-03-17T03:20:48.053Z,3.31
2023-03-17T03:21:48.048Z,3.44
2023-03-17T03:22:48.037Z,3.54
2023-03-17T03:23:48.028Z,3.60
2023-03-17T03:24:48.029Z,3.68
2023-03-17T03:25:48.008Z,3.70
2023-03-17T03:26:47.996Z,3.78
2023-03-17T03:27:47.988Z,3.83
2023-03-17T03:28:47.982Z,3.83
2023-03-17T03:29:47.983Z,3.90
2023-03-17T03:30:47.997Z,3.89
2023-03-17T03:31:47.960Z,3.90
2023-03-17T03:32:48.007Z,3.98
2023-03-17T03:33:47.945Z,4.00
2023-03-17T03:34:47.917Z,3.98
2023-03-17T03:35:47.976Z,3.94
2023-03-17T03:36:47.893Z,4.00
2023-03-17T03:37:47.888Z,3.98
2023-03-17T03:38:47.893Z,3.97
2023-03-17T03:39:47.878Z,3.94
2023-03-17T03:40:47.856Z,3.88
2023-03-17T03:41:47.851Z,3.83
2023-03-17T03:42:47.837Z,3.82
2023-03-17T03:43:47.842Z,3.86
2023-03-17T03:44:47.810Z,3.85
2023-03-17T03:45:47.805Z,3.97
2023-03-17T03:46:47.840Z,4.15
2023-03-17T03:47:47.782Z,4.22
2023-03-17T03:48:47.786Z,4.42
2023-03-17T03:49:47.780Z,4.52
2023-03-17T03:50:47.761Z,4.55
2023-03-17T03:51:47.757Z,4.61
2023-03-17T03:52:47.728Z,4.59
2023-03-17T03:53:47.762Z,4.55
2023-03-17T03:54:47.722Z,4.46
2023-03-17T03:55:47.709Z,4.50
2023-03-17T03:56:47.688Z,4.44
2023-03-17T03:57:47.700Z,4.43
2023-03-17T03:58:47.673Z,4.37
2023-03-17T03:59:47.712Z,4.39
2023-03-17T04:00:47.660Z,4.46
2023-03-17T04:01:47.640Z,4.54
2023-03-17T04:02:47.674Z,4.55
2023-03-17T04:03:47.629Z,4.58
2023-03-17T04:04:47.659Z,4.55
2023-03-17T04:05:47.614Z,4.54
2023-03-17T04:06:47.595Z,4.54
2023-03-17T04:07:47.576Z,4.54
2023-03-17T04:08:47.584Z,4.46
2023-03-17T04:09:47.574Z,4.51
2023-03-17T04:10:47.581Z,4.52
2023-03-17T04:11:47.541Z,4.52
2023-03-17T04:12:47.532Z,4.52
2023-03-17T04:13:47.510Z,4.55
2023-03-17T04:14:47.526Z,4.52
2023-03-17T04:15:47.528Z,4.43
2023-03-17T04:16:47.495Z,4.44
2023-03-17T04:17:47.488Z,4.40
2023-03-17T04:18:47.571Z,4.42
2023-03-17T04:19:47.470Z,4.39
2023-03-17T04:20:47.461Z,4.37
2023-03-17T04:21:47.433Z,4.36
2023-03-17T04:22:47.426Z,4.36
2023-03-17T04:23:47.435Z,4.37
2023-03-17T04:24:47.405Z,4.33
2023-03-17T04:25:47.400Z,4.34
2023-03-17T04:26:47.389Z,4.36
2023-03-17T04:27:47.369Z,4.34
2023-03-17T04:28:47.380Z,4.28
2023-03-17T04:29:47.353Z,4.24
2023-03-17T04:30:47.346Z,4.33
2023-03-17T04:31:47.358Z,4.39
2023-03-17T04:32:47.347Z,4.34
2023-03-17T04:33:47.336Z,4.33
2023-03-17T04:34:47.306Z,4.36
2023-03-17T04:35:47.350Z,4.39
2023-03-17T04:36:47.281Z,4.37
2023-03-17T04:37:47.273Z,4.50
2023-03-17T04:38:47.282Z,4.47
2023-03-17T04:39:47.253Z,4.43
2023-03-17T04:40:47.251Z,4.37
2023-03-17T04:41:47.228Z,4.34
2023-03-17T04:42:47.224Z,4.24
2023-03-17T04:43:47.224Z,4.14
2023-03-17T04:44:47.203Z,4.12
2023-03-17T04:45:47.252Z,4.19
2023-03-17T04:46:47.187Z,4.21
2023-03-17T04:47:47.194Z,4.22
2023-03-17T04:48:47.170Z,4.25
2023-03-17T04:49:47.152Z,4.24
2023-03-17T04:50:47.146Z,4.25
2023-03-17T04:51:47.130Z,4.28
2023-03-17T04:52:47.128Z,4.29
2023-03-17T04:53:47.108Z,4.33
2023-03-17T04:54:47.121Z,4.29
2023-03-17T04:55:47.095Z,4.29
2023-03-17T04:56:47.101Z,4.33
2023-03-17T04:57:47.069Z,4.28
2023-03-17T04:58:47.063Z,4.25
2023-03-17T04:59:47.012Z,4.19
2023-03-17T05:00:53.122Z,4.10
2023-03-17T05:01:46.986Z,4.06
2023-03-17T05:02:46.973Z,3.98
2023-03-17T05:03:46.958Z,3.89
2023-03-17T05:04:46.968Z,3.85
2023-03-17T05:05:46.941Z,3.83
2023-03-17T05:06:46.929Z,3.79
2023-03-17T05:07:46.922Z,3.79
2023-03-17T05:08:46.912Z,3.79
2023-03-17T05:09:46.916Z,3.79
2023-03-17T05:10:46.890Z,3.83
2023-03-17T05:11:46.879Z,3.90
2023-03-17T05:12:46.869Z,3.97
2023-03-17T05:13:46.855Z,3.98
2023-03-17T05:14:46.877Z,4.03
2023-03-17T05:15:46.837Z,4.01
2023-03-17T05:16:46.882Z,3.94
2023-03-17T05:17:46.818Z,3.90
2023-03-17T05:18:46.811Z,3.88
2023-03-17T05:19:46.812Z,3.83
2023-03-17T05:20:46.795Z,3.80
2023-03-17T05:21:46.785Z,3.76
2023-03-17T05:22:46.775Z,3.72
2023-03-17T05:23:46.754Z,3.71
2023-03-17T05:24:46.773Z,3.75
2023-03-17T05:25:46.739Z,3.78
2023-03-17T05:26:46.722Z,3.72
2023-03-17T05:27:46.720Z,3.76
2023-03-17T05:28:46.712Z,3.75
2023-03-17T05:29:46.706Z,3.75
2023-03-17T05:30:46.816Z,3.71
2023-03-17T05:31:46.676Z,3.68
2023-03-17T05:32:46.744Z,3.71
2023-03-17T05:33:46.657Z,3.76
2023-03-17T05:34:46.698Z,3.75
2023-03-17T05:35:46.680Z,3.72
2023-03-17T05:36:46.626Z,3.82
2023-03-17T05:37:46.612Z,3.80
2023-03-17T05:38:46.608Z,3.75
2023-03-17T05:39:46.606Z,3.71
2023-03-17T05:40:46.614Z,3.75
2023-03-17T05:41:46.575Z,3.78
2023-03-17T05:42:46.565Z,3.82
2023-03-17T05:43:46.572Z,3.82
2023-03-17T05:44:46.549Z,3.78
2023-03-17T05:45:46.584Z,3.71
2023-03-17T05:46:46.531Z,3.60
2023-03-17T05:47:46.518Z,3.58
2023-03-17T05:48:46.511Z,3.67
2023-03-17T05:49:46.497Z,3.65
2023-03-17T05:50:46.526Z,3.68
2023-03-17T05:51:46.511Z,3.67
2023-03-17T05:52:46.477Z,3.65
2023-03-17T05:53:46.454Z,3.65
2023-03-17T05:54:46.490Z,3.64
2023-03-17T05:55:46.464Z,3.70
2023-03-17T05:56:46.431Z,3.72
2023-03-17T05:57:46.418Z,3.85
2023-03-17T05:58:46.414Z,3.97
2023-03-17T05:59:46.415Z,3.97
2023-03-17T06:00:46.400Z,3.96
2023-03-17T06:01:46.384Z,3.94
2023-03-17T06:02:46.505Z,3.90
2023-03-17T06:03:46.411Z,3.90
2023-03-17T06:04:46.367Z,3.88
2023-03-17T06:05:46.333Z,3.82
2023-03-17T06:06:46.416Z,3.86
2023-03-17T06:07:53.328Z,3.83
2023-03-17T06:08:46.317Z,3.80
2023-03-17T06:09:46.326Z,3.79
2023-03-17T06:10:46.309Z,3.75
2023-03-17T06:11:46.293Z,3.76
2023-03-17T06:12:46.277Z,3.75
2023-03-17T06:13:46.250Z,3.72
2023-03-17T06:14:46.258Z,3.76
2023-03-17T06:15:46.344Z,3.82
2023-03-17T06:16:46.264Z,3.85
2023-03-17T06:17:46.214Z,3.92
2023-03-17T06:18:46.219Z,3.94
2023-03-17T06:19:48.361Z,3.90
2023-03-17T06:20:46.192Z,3.92
2023-03-17T06:21:46.176Z,3.98
2023-03-17T06:23:02.159Z,4.04
2023-03-17T06:23:46.158Z,4.07
2023-03-17T06:24:46.161Z,4.10
2023-03-17T06:25:46.143Z,4.10
2023-03-17T06:26:46.141Z,4.19
2023-03-17T06:27:46.121Z,4.32
2023-03-17T06:28:46.111Z,4.40
2023-03-17T06:29:46.112Z,4.47
2023-03-17T06:30:46.215Z,4.59
2023-03-17T06:31:46.073Z,4.69
2023-03-17T06:32:46.142Z,4.72
2023-03-17T06:33:46.079Z,4.75
2023-03-17T06:34:46.069Z,4.83
2023-03-17T06:35:46.121Z,4.89
2023-03-17T06:36:46.030Z,4.91
2023-03-17T06:37:46.012Z,4.96
2023-03-17T06:38:46.027Z,5.02
2023-03-17T06:39:45.997Z,5.10
2023-03-17T06:40:46.000Z,5.09
2023-03-17T06:41:45.974Z,5.10
2023-03-17T06:42:45.965Z,5.14
2023-03-17T06:43:45.953Z,5.16
2023-03-17T06:44:45.963Z,5.19
2023-03-17T06:45:45.948Z,5.23
2023-03-17T06:46:45.965Z,5.22
2023-03-17T06:47:45.913Z,5.31
2023-03-17T06:48:45.908Z,5.41
2023-03-17T06:49:45.932Z,5.45
2023-03-17T06:50:45.891Z,5.40
2023-03-17T06:51:45.877Z,5.48
2023-03-17T06:52:46.881Z,5.55
2023-03-17T06:53:45.868Z,5.67
2023-03-17T06:54:45.894Z,5.78
2023-03-17T06:55:45.834Z,6.04
2023-03-17T06:56:45.828Z,6.26
2023-03-17T06:57:45.812Z,6.47
2023-03-17T06:58:45.808Z,6.84
2023-03-17T06:59:45.830Z,6.89
2023-03-17T07:00:45.793Z,7.23
2023-03-17T07:01:45.819Z,7.45
2023-03-17T07:02:45.767Z,7.31
2023-03-17T07:03:45.756Z,7.12
2023-03-17T07:04:45.819Z,7.01
2023-03-17T07:05:45.731Z,6.84
2023-03-17T07:06:45.728Z,6.73
2023-03-17T07:07:45.712Z,6.80
2023-03-17T07:08:45.706Z,6.90
2023-03-17T07:09:45.703Z,7.19
2023-03-17T07:10:45.694Z,7.42
2023-03-17T07:11:45.674Z,7.50
2023-03-17T07:12:45.715Z,7.74
2023-03-17T07:13:45.667Z,7.90
2023-03-17T07:14:45.673Z,7.74
2023-03-17T07:15:45.632Z,7.94
2023-03-17T07:16:45.667Z,8.20
2023-03-17T07:17:45.630Z,8.42
2023-03-17T07:18:45.610Z,8.51
2023-03-17T07:19:45.601Z,8.32
2023-03-17T07:20:45.584Z,8.25
2023-03-17T07:21:47.071Z,8.07
2023-03-17T07:22:45.584Z,7.82
2023-03-17T07:23:45.545Z,7.87
2023-03-17T07:24:45.560Z,8.07
2023-03-17T07:25:45.530Z,8.29
2023-03-17T07:26:45.519Z,9.04
2023-03-17T07:27:45.504Z,9.45
2023-03-17T07:28:45.519Z,9.20
2023-03-17T07:29:45.511Z,9.68
2023-03-17T07:30:45.509Z,10.04
2023-03-17T07:31:45.660Z,9.88
2023-03-17T07:32:45.505Z,9.88
2023-03-17T07:33:45.457Z,9.85
2023-03-17T07:34:45.469Z,10.10
2023-03-17T07:35:45.425Z,10.39
2023-03-17T07:36:45.424Z,10.63
2023-03-17T07:37:45.409Z,10.94
2023-03-17T07:38:45.398Z,10.94
2023-03-17T07:39:45.415Z,10.99
2023-03-17T07:40:45.402Z,11.03
2023-03-17T07:41:45.359Z,10.59
2023-03-17T07:42:45.377Z,10.39
2023-03-17T07:43:45.339Z,11.01
2023-03-17T07:44:45.401Z,11.52
2023-03-17T07:45:45.328Z,11.52
2023-03-17T07:46:45.317Z,11.17
2023-03-17T07:47:45.327Z,11.02
2023-03-17T07:48:45.309Z,10.98
2023-03-17T07:49:45.306Z,11.17
2023-03-17T07:50:45.276Z,11.06
2023-03-17T07:51:45.260Z,10.96
2023-03-17T07:52:45.249Z,10.92
2023-03-17T07:53:45.265Z,10.77
2023-03-17T07:54:45.231Z,10.71
2023-03-17T07:55:45.281Z,10.74
2023-03-17T07:56:45.214Z,11.07
2023-03-17T07:57:45.214Z,11.35
2023-03-17T07:58:45.191Z,11.94
2023-03-17T07:59:45.179Z,12.59
2023-03-17T08:00:45.186Z,12.75
2023-03-17T08:01:45.260Z,12.45
2023-03-17T08:02:46.870Z,12.70
2023-03-17T08:03:45.213Z,13.00
2023-03-17T08:04:45.124Z,12.21
2023-03-17T08:05:45.128Z,12.88
2023-03-17T08:06:45.117Z,12.81
2023-03-17T08:07:45.112Z,13.14
2023-03-17T08:08:45.082Z,12.84
2023-03-17T08:09:45.070Z,12.96
2023-03-17T08:10:45.078Z,13.11
2023-03-17T08:11:45.068Z,13.11
2023-03-17T08:12:45.042Z,13.65
2023-03-17T08:13:45.041Z,13.88
2023-03-17T08:14:45.019Z,13.54
2023-03-17T08:15:45.013Z,13.11
2023-03-17T08:16:45.087Z,13.22
2023-03-17T08:17:45.008Z,13.73
2023-03-17T08:18:44.979Z,14.09
2023-03-17T08:19:44.969Z,14.04
2023-03-17T08:20:44.970Z,14.01
2023-03-17T08:21:44.950Z,14.35
2023-03-17T08:22:44.941Z,14.12
2023-03-17T08:23:44.936Z,13.87
2023-03-17T08:24:44.970Z,13.58
2023-03-17T08:25:44.930Z,14.25
2023-03-17T08:26:44.897Z,15.03
2023-03-17T08:27:44.940Z,15.06
2023-03-17T08:28:44.871Z,15.38
2023-03-17T08:29:44.868Z,15.76
2023-03-17T08:30:45.017Z,15.43
2023-03-17T08:31:46.661Z,15.21
2023-03-17T08:32:44.967Z,14.74
2023-03-17T08:33:44.830Z,14.91
2023-03-17T08:34:44.809Z,14.38
2023-03-17T08:35:44.861Z,14.29
2023-03-17T08:36:44.796Z,14.24
2023-03-17T08:37:44.804Z,14.57
2023-03-17T08:38:44.780Z,14.68
2023-03-17T08:39:44.770Z,14.32
2023-03-17T08:40:44.773Z,14.38
2023-03-17T08:41:44.754Z,14.71
2023-03-17T08:42:44.737Z,14.84
2023-03-17T08:43:44.723Z,14.98
2023-03-17T08:44:44.710Z,14.62
2023-03-17T08:45:44.743Z,14.21
2023-03-17T08:46:44.695Z,14.06
2023-03-17T08:47:44.682Z,14.44
2023-03-17T08:48:44.670Z,14.90
2023-03-17T08:49:44.665Z,15.56
2023-03-17T08:50:44.659Z,16.30
2023-03-17T08:51:44.642Z,15.79
2023-03-17T08:52:44.631Z,15.97
2023-03-17T08:53:44.622Z,16.16
2023-03-17T08:54:44.608Z,17.03
2023-03-17T08:55:44.618Z,17.10
2023-03-17T08:56:44.584Z,16.63
2023-03-17T08:57:44.580Z,16.18
2023-03-17T08:58:44.572Z,16.45
2023-03-17T08:59:44.561Z,15.89
2023-03-17T09:00:44.564Z,15.17
2023-03-17T09:01:44.568Z,15.27
2023-03-17T09:02:44.614Z,15.63
2023-03-17T09:03:44.530Z,16.38
2023-03-17T09:04:44.502Z,15.93
2023-03-17T09:05:44.514Z,15.23
2023-03-17T09:07:01.948Z,15.51
2023-03-17T09:07:44.552Z,14.86
2023-03-17T09:08:44.479Z,14.56
2023-03-17T09:09:44.461Z,14.53
2023-03-17T09:10:44.571Z,14.91
2023-03-17T09:11:44.449Z,15.35
2023-03-17T09:12:44.452Z,15.28
2023-03-17T09:13:44.427Z,15.01
2023-03-17T09:14:44.995Z,14.90
2023-03-17T09:15:44.443Z,15.42
2023-03-17T09:16:44.374Z,16.35
2023-03-17T09:17:44.372Z,16.41
2023-03-17T09:18:44.376Z,15.96
2023-03-17T09:19:44.357Z,15.72
2023-03-17T09:20:44.380Z,15.84
2023-03-17T09:21:44.332Z,15.92
2023-03-17T09:22:44.324Z,15.64
2023-03-17T09:23:44.323Z,15.31
2023-03-17T09:24:44.297Z,15.17
2023-03-17T09:25:44.309Z,14.68
2023-03-17T09:26:44.290Z,14.61
2023-03-17T09:27:44.269Z,14.42
2023-03-17T09:28:44.254Z,14.34
2023-03-17T09:29:44.253Z,14.35
2023-03-17T09:30:44.272Z,14.78
2023-03-17T09:31:44.228Z,15.19
2023-03-17T09:32:44.238Z,15.57
2023-03-17T09:33:44.213Z,15.61
2023-03-17T09:34:44.199Z,15.57
2023-03-17T09:35:44.229Z,15.23
2023-03-17T09:36:44.176Z,14.98
2023-03-17T09:37:44.164Z,14.64
2023-03-17T09:38:44.151Z,14.88
2023-03-17T09:39:44.151Z,15.39
2023-03-17T09:40:44.151Z,15.66
2023-03-17T09:41:44.127Z,15.68
2023-03-17T09:42:44.111Z,15.96
2023-03-17T09:43:44.107Z,16.01
2023-03-17T09:44:44.092Z,15.54
2023-03-17T09:45:44.098Z,15.52
2023-03-17T09:46:44.120Z,15.82
2023-03-17T09:47:44.082Z,15.28
2023-03-17T09:48:44.053Z,15.84
2023-03-17T09:49:44.043Z,16.22
2023-03-17T09:50:44.035Z,16.59
2023-03-17T09:51:44.023Z,16.42
2023-03-17T09:52:44.039Z,16.18
2023-03-17T09:53:44.005Z,15.81
2023-03-17T09:54:43.991Z,16.03
2023-03-17T09:55:43.996Z,15.94
2023-03-17T09:56:43.968Z,15.96
2023-03-17T09:57:43.991Z,15.67
2023-03-17T09:58:43.944Z,15.63
2023-03-17T09:59:43.953Z,15.67
2023-03-17T10:00:43.940Z,15.59
2023-03-17T10:01:44.053Z,15.93
2023-03-17T10:02:43.932Z,16.12
2023-03-17T10:03:43.908Z,16.03
2023-03-17T10:04:43.889Z,15.59
2023-03-17T10:05:43.922Z,15.59
2023-03-17T10:06:43.860Z,16.27
2023-03-17T10:07:43.889Z,16.44
2023-03-17T10:08:43.847Z,16.35
2023-03-17T10:09:43.843Z,16.75
2023-03-17T10:10:43.830Z,17.29
2023-03-17T10:11:43.820Z,16.89
2023-03-17T10:12:43.821Z,17.38
2023-03-17T10:13:43.791Z,17.71
2023-03-17T10:14:43.779Z,18.18
2023-03-17T10:15:43.788Z,18.00
2023-03-17T10:16:43.764Z,17.94
2023-03-17T10:17:43.763Z,17.04
2023-03-17T10:18:43.743Z,17.41
2023-03-17T10:19:43.734Z,17.35
2023-03-17T10:20:43.737Z,17.89
2023-03-17T10:21:43.708Z,18.61
2023-03-17T10:22:43.704Z,18.37
2023-03-17T10:23:43.707Z,18.79
2023-03-17T10:24:43.683Z,18.65
2023-03-17T10:25:43.674Z,19.05
2023-03-17T10:26:43.676Z,19.24
2023-03-17T10:27:43.651Z,19.15
2023-03-17T10:28:43.668Z,19.69
2023-03-17T10:29:43.631Z,19.43
2023-03-17T10:30:43.629Z,19.47
2023-03-17T10:31:43.632Z,19.58
2023-03-17T10:32:43.603Z,19.73
2023-03-17T10:33:43.610Z,19.84
2023-03-17T10:34:43.572Z,20.16
2023-03-17T10:35:43.578Z,20.54
2023-03-17T10:36:43.553Z,20.83
2023-03-17T10:37:44.013Z,20.71
2023-03-17T10:38:43.577Z,21.19
2023-03-17T10:39:43.529Z,21.60
2023-03-17T10:40:43.531Z,21.14
2023-03-17T10:41:43.521Z,20.62
2023-03-17T10:42:43.496Z,20.15
2023-03-17T10:43:43.487Z,19.68
2023-03-17T10:44:43.476Z,20.49
2023-03-17T10:45:45.244Z,20.79
2023-03-17T10:46:43.507Z,20.62
2023-03-17T10:47:43.446Z,20.79
2023-03-17T10:48:43.426Z,19.93
2023-03-17T10:49:43.424Z,19.93
2023-03-17T10:50:43.419Z,20.31
2023-03-17T10:51:43.436Z,20.58
2023-03-17T10:52:43.389Z,20.00
2023-03-17T10:53:43.418Z,19.72
2023-03-17T10:54:43.368Z,19.54
2023-03-17T10:55:43.371Z,19.73
2023-03-17T10:56:43.361Z,19.84
2023-03-17T10:57:43.350Z,19.97
2023-03-17T10:58:43.339Z,20.53
2023-03-17T10:59:44.392Z,20.77
2023-03-17T11:00:43.348Z,20.24
2023-03-17T11:01:43.322Z,20.30
2023-03-17T11:02:43.310Z,20.84
2023-03-17T11:03:43.306Z,21.04
2023-03-17T11:04:43.281Z,21.14
2023-03-17T11:05:43.274Z,20.89
2023-03-17T11:06:43.303Z,20.95
2023-03-17T11:07:43.259Z,20.80
2023-03-17T11:08:43.228Z,20.41
2023-03-17T11:09:43.222Z,20.25
2023-03-17T11:10:43.204Z,20.20
2023-03-17T11:11:43.216Z,20.08
2023-03-17T11:12:43.188Z,20.30
2023-03-17T11:13:43.183Z,20.83
2023-03-17T11:14:43.167Z,20.21
2023-03-17T11:15:43.169Z,20.08
2023-03-17T11:16:43.203Z,19.86
2023-03-17T11:17:43.141Z,20.24
2023-03-17T11:18:43.122Z,20.38
2023-03-17T11:19:43.130Z,20.20
2023-03-17T11:20:43.111Z,19.94
2023-03-17T11:21:43.125Z,19.76
2023-03-17T11:22:43.119Z,19.79
2023-03-17T11:23:43.125Z,19.38
2023-03-17T11:24:43.064Z,19.18
2023-03-17T11:25:43.057Z,19.54
2023-03-17T11:26:43.073Z,19.93
2023-03-17T11:27:43.038Z,20.13
2023-03-17T11:28:43.021Z,20.30
2023-03-17T11:29:43.034Z,20.59
2023-03-17T11:30:43.002Z,20.99
2023-03-17T11:31:43.071Z,20.59
2023-03-17T11:32:42.997Z,20.79
2023-03-17T11:33:42.983Z,21.20
2023-03-17T11:34:42.978Z,21.41
2023-03-17T11:35:42.977Z,20.87
2023-03-17T11:36:42.964Z,21.34
2023-03-17T11:37:42.942Z,21.36
2023-03-17T11:38:42.927Z,21.63
2023-03-17T11:39:42.926Z,21.30
2023-03-17T11:40:42.906Z,21.21
2023-03-17T11:41:42.934Z,21.06
2023-03-17T11:42:42.881Z,21.08
2023-03-17T11:43:42.881Z,20.65
2023-03-17T11:44:42.857Z,20.65
2023-03-17T11:45:42.923Z,20.69
2023-03-17T11:46:42.876Z,21.06
2023-03-17T11:47:42.850Z,20.99
2023-03-17T11:48:42.837Z,20.87
2023-03-17T11:49:42.815Z,21.01
2023-03-17T11:50:42.812Z,20.95
2023-03-17T11:51:42.816Z,21.02
2023-03-17T11:52:42.778Z,21.05
2023-03-17T11:53:42.773Z,20.93
2023-03-17T11:54:42.755Z,20.81
2023-03-17T11:55:42.759Z,20.38
2023-03-17T11:56:42.749Z,19.68
2023-03-17T11:57:42.729Z,19.75
2023-03-17T11:58:42.720Z,19.66
2023-03-17T11:59:42.712Z,19.65
2023-03-17T12:00:43.832Z,19.60
2023-03-17T12:01:42.709Z,20.15
2023-03-17T12:02:42.676Z,20.09
2023-03-17T12:03:42.728Z,19.88
2023-03-17T12:04:42.741Z,20.20
2023-03-17T12:05:42.652Z,20.09
2023-03-17T12:06:42.634Z,19.98
2023-03-17T12:07:42.626Z,19.70
2023-03-17T12:08:42.617Z,19.80
2023-03-17T12:09:42.606Z,19.69
2023-03-17T12:10:42.614Z,19.88
2023-03-17T12:11:42.620Z,19.97
2023-03-17T12:12:42.569Z,19.94
2023-03-17T12:13:42.560Z,20.10
2023-03-17T12:14:42.545Z,19.95
2023-03-17T12:15:42.606Z,19.33
2023-03-17T12:16:42.541Z,18.99
2023-03-17T12:17:42.524Z,19.36
2023-03-17T12:18:42.527Z,19.48
2023-03-17T12:19:42.551Z,19.76
2023-03-17T12:20:42.493Z,19.33
2023-03-17T12:21:42.498Z,19.63
2023-03-17T12:22:42.490Z,19.63
2023-03-17T12:23:42.453Z,19.91
2023-03-17T12:24:42.458Z,20.03
2023-03-17T12:25:42.435Z,20.24
2023-03-17T12:26:42.442Z,19.91
2023-03-17T12:27:42.422Z,20.12
2023-03-17T12:28:42.408Z,20.80
2023-03-17T12:29:42.390Z,20.90
2023-03-17T12:30:42.399Z,20.89
2023-03-17T12:31:42.585Z,20.56
2023-03-17T12:32:42.417Z,20.53
2023-03-17T12:33:42.341Z,20.12
2023-03-17T12:34:42.337Z,20.00
2023-03-17T12:35:42.392Z,20.18
2023-03-17T12:36:42.311Z,20.03
2023-03-17T12:37:42.302Z,20.08
2023-03-17T12:38:42.293Z,20.18
2023-03-17T12:39:42.276Z,20.18
2023-03-17T12:40:42.319Z,20.53
2023-03-17T12:41:42.272Z,20.51
2023-03-17T12:42:42.261Z,20.93
2023-03-17T12:43:42.248Z,21.23
2023-03-17T12:44:42.234Z,20.90
2023-03-17T12:45:42.241Z,20.80
2023-03-17T12:46:42.262Z,20.62
2023-03-17T12:47:42.217Z,21.04
2023-03-17T12:48:42.191Z,21.17
2023-03-17T12:49:42.182Z,20.96
2023-03-17T12:50:42.169Z,20.31
2023-03-17T12:51:42.202Z,20.33
2023-03-17T12:52:42.149Z,20.81
2023-03-17T12:53:42.138Z,21.16
2023-03-17T12:54:42.122Z,20.79
2023-03-17T12:55:42.116Z,20.33
2023-03-17T12:56:42.127Z,19.80
2023-03-17T12:57:42.090Z,19.61
2023-03-17T12:58:42.076Z,19.58
2023-03-17T12:59:42.075Z,19.75
2023-03-17T13:00:42.060Z,20.06
2023-03-17T13:01:42.108Z,19.60
2023-03-17T13:02:42.067Z,19.51
2023-03-17T13:03:42.113Z,19.46
2023-03-17T13:04:42.027Z,19.06
2023-03-17T13:05:42.009Z,19.06
2023-03-17T13:06:42.017Z,18.84
2023-03-17T13:07:42.000Z,18.68